sensor_id;sensor_type;location;lat;lon;timestamp;P1;durP1;ratioP1;P2;durP2;ratioP2
60318;SDS011;46163;52.306;5.634;2023-04-06T00:01:40;0.88;;;0.88;;
60318;SDS011;46163;52.306;5.634;2023-04-06T00:04:06;0.80;;;0.80;;
60318;SDS011;46163;52.306;5.634;2023-04-06T00:06:32;0.85;;;0.80;;
60318;SDS011;46163;52.306;5.634;2023-04-06T00:08:58;0.90;;;0.90;;
60318;SDS011;46163;52.306;5.634;2023-04-06T00:11:25;1.05;;;0.95;;
60318;SDS011;46163;52.306;5.634;2023-04-06T00:13:50;0.73;;;0.73;;
60318;SDS011;46163;52.306;5.634;2023-04-06T00:16:16;1.13;;;1.10;;
60318;SDS011;46163;52.306;5.634;2023-04-06T00:18:42;0.60;;;0.60;;
60318;SDS011;46163;52.306;5.634;2023-04-06T00:21:07;0.82;;;0.82;;
60318;SDS011;46163;52.306;5.634;2023-04-06T00:23:36;0.80;;;0.80;;
60318;SDS011;46163;52.306;5.634;2023-04-06T00:26:01;1.08;;;1.08;;
60318;SDS011;46163;52.306;5.634;2023-04-06T00:28:27;0.80;;;0.80;;
60318;SDS011;46163;52.306;5.634;2023-04-06T00:30:54;0.80;;;0.80;;
60318;SDS011;46163;52.306;5.634;2023-04-06T00:33:20;0.90;;;0.90;;
60318;SDS011;46163;52.306;5.634;2023-04-06T00:35:47;0.88;;;0.88;;
60318;SDS011;46163;52.306;5.634;2023-04-06T00:38:13;1.15;;;1.10;;
60318;SDS011;46163;52.306;5.634;2023-04-06T00:40:40;0.83;;;0.83;;
60318;SDS011;46163;52.306;5.634;2023-04-06T00:43:05;0.90;;;0.90;;
60318;SDS011;46163;52.306;5.634;2023-04-06T00:45:32;1.33;;;1.00;;
60318;SDS011;46163;52.306;5.634;2023-04-06T00:47:58;0.98;;;0.98;;
60318;SDS011;46163;52.306;5.634;2023-04-06T00:50:24;0.95;;;0.95;;
60318;SDS011;46163;52.306;5.634;2023-04-06T00:52:49;1.40;;;0.90;;
60318;SDS011;46163;52.306;5.634;2023-04-06T00:55:15;1.00;;;1.00;;
60318;SDS011;46163;52.306;5.634;2023-04-06T00:57:41;0.80;;;0.80;;
60318;SDS011;46163;52.306;5.634;2023-04-06T01:00:09;0.73;;;0.73;;
60318;SDS011;46163;52.306;5.634;2023-04-06T01:02:37;1.25;;;1.15;;
60318;SDS011;46163;52.306;5.634;2023-04-06T01:05:02;1.80;;;1.02;;
60318;SDS011;46163;52.306;5.634;2023-04-06T01:07:28;0.85;;;0.85;;
60318;SDS011;46163;52.306;5.634;2023-04-06T01:09:54;1.00;;;1.00;;
60318;SDS011;46163;52.306;5.634;2023-04-06T01:12:20;1.00;;;1.00;;
60318;SDS011;46163;52.306;5.634;2023-04-06T01:14:45;0.77;;;0.77;;
60318;SDS011;46163;52.306;5.634;2023-04-06T01:17:11;1.00;;;1.00;;
60318;SDS011;46163;52.306;5.634;2023-04-06T01:19:36;0.85;;;0.85;;
60318;SDS011;46163;52.306;5.634;2023-04-06T01:22:02;0.90;;;0.90;;
60318;SDS011;46163;52.306;5.634;2023-04-06T01:24:27;1.02;;;1.02;;
60318;SDS011;46163;52.306;5.634;2023-04-06T01:26:53;0.90;;;0.88;;
60318;SDS011;46163;52.306;5.634;2023-04-06T01:29:18;0.90;;;0.90;;
60318;SDS011;46163;52.306;5.634;2023-04-06T01:31:44;0.70;;;0.70;;
60318;SDS011;46163;52.306;5.634;2023-04-06T01:34:10;0.80;;;0.80;;
60318;SDS011;46163;52.306;5.634;2023-04-06T01:36:35;1.08;;;1.08;;
60318;SDS011;46163;52.306;5.634;2023-04-06T01:39:01;1.10;;;1.10;;
60318;SDS011;46163;52.306;5.634;2023-04-06T01:41:26;0.93;;;0.93;;
60318;SDS011;46163;52.306;5.634;2023-04-06T01:43:51;1.15;;;1.10;;
60318;SDS011;46163;52.306;5.634;2023-04-06T01:46:19;0.90;;;0.90;;
60318;SDS011;46163;52.306;5.634;2023-04-06T01:48:45;0.80;;;0.80;;
60318;SDS011;46163;52.306;5.634;2023-04-06T01:51:11;0.90;;;0.90;;
60318;SDS011;46163;52.306;5.634;2023-04-06T01:53:36;1.05;;;0.93;;
60318;SDS011;46163;52.306;5.634;2023-04-06T01:56:01;0.82;;;0.82;;
60318;SDS011;46163;52.306;5.634;2023-04-06T01:58:27;0.70;;;0.70;;
60318;SDS011;46163;52.306;5.634;2023-04-06T02:00:52;1.02;;;1.00;;
60318;SDS011;46163;52.306;5.634;2023-04-06T02:03:18;0.80;;;0.80;;
60318;SDS011;46163;52.306;5.634;2023-04-06T02:05:46;0.80;;;0.80;;
60318;SDS011;46163;52.306;5.634;2023-04-06T02:08:11;0.77;;;0.77;;
60318;SDS011;46163;52.306;5.634;2023-04-06T02:10:36;0.95;;;0.88;;
60318;SDS011;46163;52.306;5.634;2023-04-06T02:13:02;0.90;;;0.90;;
60318;SDS011;46163;52.306;5.634;2023-04-06T02:15:27;0.90;;;0.90;;
60318;SDS011;46163;52.306;5.634;2023-04-06T02:17:53;0.75;;;0.75;;
60318;SDS011;46163;52.306;5.634;2023-04-06T02:20:18;1.00;;;1.00;;
60318;SDS011;46163;52.306;5.634;2023-04-06T02:22:44;0.90;;;0.90;;
60318;SDS011;46163;52.306;5.634;2023-04-06T02:25:10;1.08;;;0.90;;
60318;SDS011;46163;52.306;5.634;2023-04-06T02:27:35;1.00;;;1.00;;
60318;SDS011;46163;52.306;5.634;2023-04-06T02:30:02;0.98;;;0.98;;
60318;SDS011;46163;52.306;5.634;2023-04-06T02:32:28;0.80;;;0.80;;
60318;SDS011;46163;52.306;5.634;2023-04-06T02:34:54;1.00;;;1.00;;
60318;SDS011;46163;52.306;5.634;2023-04-06T02:37:26;0.90;;;0.90;;
60318;SDS011;46163;52.306;5.634;2023-04-06T02:39:51;0.88;;;0.88;;
60318;SDS011;46163;52.306;5.634;2023-04-06T02:42:17;0.90;;;0.90;;
60318;SDS011;46163;52.306;5.634;2023-04-06T02:44:42;0.88;;;0.88;;
60318;SDS011;46163;52.306;5.634;2023-04-06T02:47:08;1.00;;;0.85;;
60318;SDS011;46163;52.306;5.634;2023-04-06T02:49:33;0.80;;;0.80;;
60318;SDS011;46163;52.306;5.634;2023-04-06T02:51:59;0.77;;;0.77;;
60318;SDS011;46163;52.306;5.634;2023-04-06T02:54:25;0.90;;;0.90;;
60318;SDS011;46163;52.306;5.634;2023-04-06T02:56:50;0.75;;;0.75;;
60318;SDS011;46163;52.306;5.634;2023-04-06T02:59:16;0.70;;;0.70;;
60318;SDS011;46163;52.306;5.634;2023-04-06T03:01:44;1.08;;;0.90;;
60318;SDS011;46163;52.306;5.634;2023-04-06T03:04:09;0.77;;;0.77;;
60318;SDS011;46163;52.306;5.634;2023-04-06T03:06:35;0.77;;;0.77;;
60318;SDS011;46163;52.306;5.634;2023-04-06T03:09:01;0.65;;;0.65;;
60318;SDS011;46163;52.306;5.634;2023-04-06T03:11:27;0.70;;;0.70;;
60318;SDS011;46163;52.306;5.634;2023-04-06T03:13:52;0.80;;;0.80;;
60318;SDS011;46163;52.306;5.634;2023-04-06T03:16:18;0.90;;;0.90;;
60318;SDS011;46163;52.306;5.634;2023-04-06T03:18:46;1.10;;;1.00;;
60318;SDS011;46163;52.306;5.634;2023-04-06T03:21:12;0.85;;;0.85;;
60318;SDS011;46163;52.306;5.634;2023-04-06T03:23:41;1.23;;;1.13;;
60318;SDS011;46163;52.306;5.634;2023-04-06T03:26:07;0.70;;;0.70;;
60318;SDS011;46163;52.306;5.634;2023-04-06T03:28:32;1.02;;;1.00;;
60318;SDS011;46163;52.306;5.634;2023-04-06T03:30:58;0.90;;;0.90;;
60318;SDS011;46163;52.306;5.634;2023-04-06T03:33:23;0.68;;;0.68;;
60318;SDS011;46163;52.306;5.634;2023-04-06T03:38:17;0.90;;;0.90;;
60318;SDS011;46163;52.306;5.634;2023-04-06T03:40:43;0.80;;;0.80;;
60318;SDS011;46163;52.306;5.634;2023-04-06T03:43:08;0.85;;;0.85;;
60318;SDS011;46163;52.306;5.634;2023-04-06T03:45:34;0.80;;;0.80;;
60318;SDS011;46163;52.306;5.634;2023-04-06T03:47:59;0.88;;;0.88;;
60318;SDS011;46163;52.306;5.634;2023-04-06T03:50:25;0.90;;;0.90;;
60318;SDS011;46163;52.306;5.634;2023-04-06T03:52:51;0.73;;;0.73;;
60318;SDS011;46163;52.306;5.634;2023-04-06T03:55:16;0.68;;;0.68;;
60318;SDS011;46163;52.306;5.634;2023-04-06T03:57:42;0.85;;;0.80;;
60318;SDS011;46163;52.306;5.634;2023-04-06T04:00:08;0.80;;;0.80;;
60318;SDS011;46163;52.306;5.634;2023-04-06T04:02:34;0.68;;;0.68;;
60318;SDS011;46163;52.306;5.634;2023-04-06T04:04:59;0.60;;;0.60;;
60318;SDS011;46163;52.306;5.634;2023-04-06T04:07:25;0.85;;;0.77;;
60318;SDS011;46163;52.306;5.634;2023-04-06T04:09:51;0.82;;;0.82;;
60318;SDS011;46163;52.306;5.634;2023-04-06T04:12:17;0.65;;;0.65;;
60318;SDS011;46163;52.306;5.634;2023-04-06T04:14:42;0.75;;;0.75;;
60318;SDS011;46163;52.306;5.634;2023-04-06T04:17:08;0.90;;;0.90;;
60318;SDS011;46163;52.306;5.634;2023-04-06T04:19:34;0.73;;;0.73;;
60318;SDS011;46163;52.306;5.634;2023-04-06T04:22:00;0.80;;;0.80;;
60318;SDS011;46163;52.306;5.634;2023-04-06T04:24:25;0.70;;;0.70;;
60318;SDS011;46163;52.306;5.634;2023-04-06T04:26:51;0.70;;;0.70;;
60318;SDS011;46163;52.306;5.634;2023-04-06T04:29:17;0.63;;;0.63;;
60318;SDS011;46163;52.306;5.634;2023-04-06T04:31:46;0.60;;;0.60;;
60318;SDS011;46163;52.306;5.634;2023-04-06T04:34:11;0.70;;;0.70;;
60318;SDS011;46163;52.306;5.634;2023-04-06T04:36:42;0.70;;;0.70;;
60318;SDS011;46163;52.306;5.634;2023-04-06T04:39:08;0.70;;;0.70;;
60318;SDS011;46163;52.306;5.634;2023-04-06T04:41:34;0.80;;;0.80;;
60318;SDS011;46163;52.306;5.634;2023-04-06T04:44:00;0.80;;;0.80;;
60318;SDS011;46163;52.306;5.634;2023-04-06T04:46:26;0.90;;;0.90;;
60318;SDS011;46163;52.306;5.634;2023-04-06T04:48:51;0.75;;;0.75;;
60318;SDS011;46163;52.306;5.634;2023-04-06T04:51:17;0.50;;;0.50;;
60318;SDS011;46163;52.306;5.634;2023-04-06T04:53:42;0.70;;;0.70;;
60318;SDS011;46163;52.306;5.634;2023-04-06T04:56:08;0.60;;;0.60;;
60318;SDS011;46163;52.306;5.634;2023-04-06T04:58:33;0.70;;;0.70;;
60318;SDS011;46163;52.306;5.634;2023-04-06T05:00:59;0.65;;;0.65;;
60318;SDS011;46163;52.306;5.634;2023-04-06T05:03:25;0.70;;;0.70;;
60318;SDS011;46163;52.306;5.634;2023-04-06T05:05:51;0.68;;;0.68;;
60318;SDS011;46163;52.306;5.634;2023-04-06T05:08:17;0.77;;;0.77;;
60318;SDS011;46163;52.306;5.634;2023-04-06T05:10:43;0.85;;;0.85;;
60318;SDS011;46163;52.306;5.634;2023-04-06T05:13:13;0.98;;;0.98;;
60318;SDS011;46163;52.306;5.634;2023-04-06T05:15:38;0.75;;;0.75;;
60318;SDS011;46163;52.306;5.634;2023-04-06T05:18:05;0.80;;;0.80;;
60318;SDS011;46163;52.306;5.634;2023-04-06T05:20:31;0.88;;;0.88;;
60318;SDS011;46163;52.306;5.634;2023-04-06T05:22:57;1.13;;;1.10;;
60318;SDS011;46163;52.306;5.634;2023-04-06T05:25:22;1.20;;;1.02;;
60318;SDS011;46163;52.306;5.634;2023-04-06T05:27:48;0.90;;;0.90;;
60318;SDS011;46163;52.306;5.634;2023-04-06T05:30:16;1.05;;;1.05;;
60318;SDS011;46163;52.306;5.634;2023-04-06T05:32:42;1.40;;;1.20;;
60318;SDS011;46163;52.306;5.634;2023-04-06T05:35:09;1.30;;;1.20;;
60318;SDS011;46163;52.306;5.634;2023-04-06T05:37:35;1.10;;;1.10;;
60318;SDS011;46163;52.306;5.634;2023-04-06T05:40:00;0.90;;;0.90;;
60318;SDS011;46163;52.306;5.634;2023-04-06T05:42:26;1.10;;;1.00;;
60318;SDS011;46163;52.306;5.634;2023-04-06T05:44:52;1.00;;;1.00;;
60318;SDS011;46163;52.306;5.634;2023-04-06T05:47:17;0.90;;;0.90;;
60318;SDS011;46163;52.306;5.634;2023-04-06T05:49:43;3.30;;;1.30;;
60318;SDS011;46163;52.306;5.634;2023-04-06T05:52:08;1.10;;;1.10;;
60318;SDS011;46163;52.306;5.634;2023-04-06T05:54:35;1.40;;;1.30;;
60318;SDS011;46163;52.306;5.634;2023-04-06T05:57:02;1.38;;;1.27;;
60318;SDS011;46163;52.306;5.634;2023-04-06T05:59:30;1.40;;;1.30;;
60318;SDS011;46163;52.306;5.634;2023-04-06T06:01:56;5.90;;;1.30;;
60318;SDS011;46163;52.306;5.634;2023-04-06T06:04:21;1.20;;;1.20;;
60318;SDS011;46163;52.306;5.634;2023-04-06T06:06:47;1.30;;;1.30;;
60318;SDS011;46163;52.306;5.634;2023-04-06T06:09:12;1.10;;;1.10;;
60318;SDS011;46163;52.306;5.634;2023-04-06T06:11:38;1.23;;;1.20;;
60318;SDS011;46163;52.306;5.634;2023-04-06T06:14:04;2.03;;;1.20;;
60318;SDS011;46163;52.306;5.634;2023-04-06T06:16:29;1.10;;;1.10;;
60318;SDS011;46163;52.306;5.634;2023-04-06T06:18:55;1.95;;;1.10;;
60318;SDS011;46163;52.306;5.634;2023-04-06T06:21:21;1.88;;;1.40;;
60318;SDS011;46163;52.306;5.634;2023-04-06T06:23:46;1.40;;;1.27;;
60318;SDS011;46163;52.306;5.634;2023-04-06T06:26:14;1.60;;;1.50;;
60318;SDS011;46163;52.306;5.634;2023-04-06T06:28:42;3.03;;;1.50;;
60318;SDS011;46163;52.306;5.634;2023-04-06T06:31:08;4.13;;;1.60;;
60318;SDS011;46163;52.306;5.634;2023-04-06T06:33:33;1.55;;;1.45;;
60318;SDS011;46163;52.306;5.634;2023-04-06T06:35:59;3.58;;;1.75;;
60318;SDS011;46163;52.306;5.634;2023-04-06T06:38:24;6.90;;;1.60;;
60318;SDS011;46163;52.306;5.634;2023-04-06T06:40:50;2.80;;;1.80;;
60318;SDS011;46163;52.306;5.634;2023-04-06T06:43:15;3.25;;;1.60;;
60318;SDS011;46163;52.306;5.634;2023-04-06T06:45:41;3.40;;;1.80;;
60318;SDS011;46163;52.306;5.634;2023-04-06T06:48:07;1.60;;;1.50;;
60318;SDS011;46163;52.306;5.634;2023-04-06T06:50:32;1.63;;;1.48;;
60318;SDS011;46163;52.306;5.634;2023-04-06T06:52:58;3.90;;;1.75;;
60318;SDS011;46163;52.306;5.634;2023-04-06T06:55:23;2.42;;;1.60;;
60318;SDS011;46163;52.306;5.634;2023-04-06T06:57:50;3.38;;;1.58;;
60318;SDS011;46163;52.306;5.634;2023-04-06T07:00:16;3.83;;;1.35;;
60318;SDS011;46163;52.306;5.634;2023-04-06T07:02:42;2.22;;;1.38;;
60318;SDS011;46163;52.306;5.634;2023-04-06T07:05:07;3.97;;;1.48;;
60318;SDS011;46163;52.306;5.634;2023-04-06T07:07:33;1.52;;;1.42;;
60318;SDS011;46163;52.306;5.634;2023-04-06T07:09:59;1.33;;;1.23;;
60318;SDS011;46163;52.306;5.634;2023-04-06T07:12:25;2.20;;;1.10;;
60318;SDS011;46163;52.306;5.634;2023-04-06T07:14:50;1.40;;;1.30;;
60318;SDS011;46163;52.306;5.634;2023-04-06T07:17:16;4.43;;;1.35;;
60318;SDS011;46163;52.306;5.634;2023-04-06T07:19:41;1.10;;;1.10;;
60318;SDS011;46163;52.306;5.634;2023-04-06T07:22:08;1.20;;;1.15;;
60318;SDS011;46163;52.306;5.634;2023-04-06T07:24:33;1.08;;;1.08;;
60318;SDS011;46163;52.306;5.634;2023-04-06T07:26:59;0.98;;;0.98;;
60318;SDS011;46163;52.306;5.634;2023-04-06T07:29:28;8.07;;;1.40;;
60318;SDS011;46163;52.306;5.634;2023-04-06T07:31:54;1.10;;;1.10;;
60318;SDS011;46163;52.306;5.634;2023-04-06T07:34:20;2.10;;;1.20;;
60318;SDS011;46163;52.306;5.634;2023-04-06T07:36:46;1.13;;;1.10;;
60318;SDS011;46163;52.306;5.634;2023-04-06T07:39:12;1.00;;;1.00;;
60318;SDS011;46163;52.306;5.634;2023-04-06T07:41:37;1.00;;;1.00;;
60318;SDS011;46163;52.306;5.634;2023-04-06T07:44:03;1.38;;;1.15;;
60318;SDS011;46163;52.306;5.634;2023-04-06T07:46:31;0.80;;;0.80;;
60318;SDS011;46163;52.306;5.634;2023-04-06T07:48:57;0.98;;;0.98;;
60318;SDS011;46163;52.306;5.634;2023-04-06T07:51:24;0.95;;;0.95;;
60318;SDS011;46163;52.306;5.634;2023-04-06T07:53:50;0.90;;;0.90;;
60318;SDS011;46163;52.306;5.634;2023-04-06T07:56:16;1.52;;;1.00;;
60318;SDS011;46163;52.306;5.634;2023-04-06T07:58:42;1.08;;;0.90;;
60318;SDS011;46163;52.306;5.634;2023-04-06T08:01:07;0.88;;;0.88;;
60318;SDS011;46163;52.306;5.634;2023-04-06T08:03:34;2.75;;;1.13;;
60318;SDS011;46163;52.306;5.634;2023-04-06T08:06:00;1.27;;;1.17;;
60318;SDS011;46163;52.306;5.634;2023-04-06T08:08:29;1.15;;;1.10;;
60318;SDS011;46163;52.306;5.634;2023-04-06T08:10:55;1.17;;;1.07;;
60318;SDS011;46163;52.306;5.634;2023-04-06T08:13:21;1.20;;;1.10;;
60318;SDS011;46163;52.306;5.634;2023-04-06T08:15:46;1.27;;;1.20;;
60318;SDS011;46163;52.306;5.634;2023-04-06T08:18:12;1.50;;;1.40;;
60318;SDS011;46163;52.306;5.634;2023-04-06T08:20:38;1.48;;;1.38;;
60318;SDS011;46163;52.306;5.634;2023-04-06T08:23:04;4.25;;;1.30;;
60318;SDS011;46163;52.306;5.634;2023-04-06T08:25:34;1.27;;;1.20;;
60318;SDS011;46163;52.306;5.634;2023-04-06T08:28:01;1.23;;;1.13;;
60318;SDS011;46163;52.306;5.634;2023-04-06T08:30:27;1.00;;;1.00;;
60318;SDS011;46163;52.306;5.634;2023-04-06T08:32:53;1.38;;;1.27;;
60318;SDS011;46163;52.306;5.634;2023-04-06T08:35:18;2.83;;;1.20;;
60318;SDS011;46163;52.306;5.634;2023-04-06T08:37:44;1.42;;;1.30;;
60318;SDS011;46163;52.306;5.634;2023-04-06T08:40:10;1.02;;;1.00;;
60318;SDS011;46163;52.306;5.634;2023-04-06T08:42:39;1.23;;;1.13;;
60318;SDS011;46163;52.306;5.634;2023-04-06T08:45:07;1.00;;;1.00;;
60318;SDS011;46163;52.306;5.634;2023-04-06T08:47:34;1.55;;;1.15;;
60318;SDS011;46163;52.306;5.634;2023-04-06T08:50:03;1.52;;;0.95;;
60318;SDS011;46163;52.306;5.634;2023-04-06T08:52:30;1.00;;;1.00;;
60318;SDS011;46163;52.306;5.634;2023-04-06T08:54:58;0.93;;;0.93;;
60318;SDS011;46163;52.306;5.634;2023-04-06T08:57:23;1.00;;;1.00;;
60318;SDS011;46163;52.306;5.634;2023-04-06T08:59:51;1.17;;;1.17;;
60318;SDS011;46163;52.306;5.634;2023-04-06T09:02:18;0.80;;;0.80;;
60318;SDS011;46163;52.306;5.634;2023-04-06T09:04:52;0.73;;;0.73;;
60318;SDS011;46163;52.306;5.634;2023-04-06T09:07:18;1.10;;;1.10;;
60318;SDS011;46163;52.306;5.634;2023-04-06T09:09:44;0.88;;;0.88;;
60318;SDS011;46163;52.306;5.634;2023-04-06T09:12:25;1.00;;;1.00;;
60318;SDS011;46163;52.306;5.634;2023-04-06T09:14:56;0.80;;;0.80;;
60318;SDS011;46163;52.306;5.634;2023-04-06T09:17:25;1.00;;;1.00;;
60318;SDS011;46163;52.306;5.634;2023-04-06T09:19:57;0.77;;;0.77;;
60318;SDS011;46163;52.306;5.634;2023-04-06T09:22:25;1.02;;;0.90;;
60318;SDS011;46163;52.306;5.634;2023-04-06T09:24:59;0.80;;;0.80;;
60318;SDS011;46163;52.306;5.634;2023-04-06T09:27:32;1.10;;;1.10;;
60318;SDS011;46163;52.306;5.634;2023-04-06T09:30:10;1.15;;;1.15;;
60318;SDS011;46163;52.306;5.634;2023-04-06T09:32:51;1.25;;;1.15;;
60318;SDS011;46163;52.306;5.634;2023-04-06T09:35:19;0.93;;;0.90;;
60318;SDS011;46163;52.306;5.634;2023-04-06T09:37:46;1.80;;;1.30;;
60318;SDS011;46163;52.306;5.634;2023-04-06T09:40:12;1.20;;;1.10;;
60318;SDS011;46163;52.306;5.634;2023-04-06T09:42:42;0.90;;;0.90;;
60318;SDS011;46163;52.306;5.634;2023-04-06T09:45:10;1.40;;;1.30;;
60318;SDS011;46163;52.306;5.634;2023-04-06T09:47:36;1.00;;;1.00;;
60318;SDS011;46163;52.306;5.634;2023-04-06T09:50:02;1.50;;;1.40;;
60318;SDS011;46163;52.306;5.634;2023-04-06T09:55:07;3.90;;;1.50;;
60318;SDS011;46163;52.306;5.634;2023-04-06T10:00:23;3.40;;;1.50;;
60318;SDS011;46163;52.306;5.634;2023-04-06T10:03:14;1.50;;;1.40;;
60318;SDS011;46163;52.306;5.634;2023-04-06T10:05:46;1.92;;;1.67;;
60318;SDS011;46163;52.306;5.634;2023-04-06T10:08:17;2.22;;;1.67;;
60318;SDS011;46163;52.306;5.634;2023-04-06T10:10:48;2.25;;;1.70;;
60318;SDS011;46163;52.306;5.634;2023-04-06T10:13:16;1.50;;;1.40;;
60318;SDS011;46163;52.306;5.634;2023-04-06T10:15:43;1.50;;;1.38;;
60318;SDS011;46163;52.306;5.634;2023-04-06T10:18:12;2.70;;;1.60;;
60318;SDS011;46163;52.306;5.634;2023-04-06T10:20:43;1.63;;;1.52;;
60318;SDS011;46163;52.306;5.634;2023-04-06T10:26:19;2.47;;;1.83;;
60318;SDS011;46163;52.306;5.634;2023-04-06T10:28:46;2.63;;;2.05;;
60318;SDS011;46163;52.306;5.634;2023-04-06T10:31:13;6.80;;;2.08;;
60318;SDS011;46163;52.306;5.634;2023-04-06T10:33:39;2.83;;;1.92;;
60318;SDS011;46163;52.306;5.634;2023-04-06T10:36:13;3.30;;;2.17;;
60318;SDS011;46163;52.306;5.634;2023-04-06T10:38:39;1.88;;;1.65;;
60318;SDS011;46163;52.306;5.634;2023-04-06T10:41:05;2.33;;;1.85;;
60318;SDS011;46163;52.306;5.634;2023-04-06T10:43:35;2.35;;;1.77;;
60318;SDS011;46163;52.306;5.634;2023-04-06T10:46:02;1.92;;;1.48;;
60318;SDS011;46163;52.306;5.634;2023-04-06T10:48:38;1.67;;;1.55;;
60318;SDS011;46163;52.306;5.634;2023-04-06T10:51:12;2.35;;;1.50;;
60318;SDS011;46163;52.306;5.634;2023-04-06T10:53:41;3.33;;;1.92;;
60318;SDS011;46163;52.306;5.634;2023-04-06T10:56:12;1.63;;;1.50;;
60318;SDS011;46163;52.306;5.634;2023-04-06T10:58:43;1.50;;;1.40;;
60318;SDS011;46163;52.306;5.634;2023-04-06T11:01:11;2.22;;;1.60;;
60318;SDS011;46163;52.306;5.634;2023-04-06T11:03:47;1.40;;;1.30;;
60318;SDS011;46163;52.306;5.634;2023-04-06T11:06:23;1.40;;;1.30;;
60318;SDS011;46163;52.306;5.634;2023-04-06T11:08:50;2.10;;;1.65;;
60318;SDS011;46163;52.306;5.634;2023-04-06T11:11:18;1.17;;;1.08;;
60318;SDS011;46163;52.306;5.634;2023-04-06T11:13:53;1.67;;;1.50;;
60318;SDS011;46163;52.306;5.634;2023-04-06T11:16:21;1.63;;;1.52;;
60318;SDS011;46163;52.306;5.634;2023-04-06T11:18:49;1.50;;;1.40;;
60318;SDS011;46163;52.306;5.634;2023-04-06T11:21:20;1.63;;;1.30;;
60318;SDS011;46163;52.306;5.634;2023-04-06T11:24:14;2.45;;;1.48;;
60318;SDS011;46163;52.306;5.634;2023-04-06T11:26:42;3.20;;;1.30;;
60318;SDS011;46163;52.306;5.634;2023-04-06T11:29:12;1.85;;;1.40;;
60318;SDS011;46163;52.306;5.634;2023-04-06T11:32:20;1.50;;;1.40;;
60318;SDS011;46163;52.306;5.634;2023-04-06T11:34:28;1.73;;;1.33;;
60318;SDS011;46163;52.306;5.634;2023-04-06T11:36:56;1.30;;;1.20;;
60318;SDS011;46163;52.306;5.634;2023-04-06T11:39:22;1.60;;;1.50;;
60318;SDS011;46163;52.306;5.634;2023-04-06T11:41:49;1.27;;;1.20;;
60318;SDS011;46163;52.306;5.634;2023-04-06T11:44:26;1.50;;;1.40;;
60318;SDS011;46163;52.306;5.634;2023-04-06T11:46:53;1.30;;;1.17;;
60318;SDS011;46163;52.306;5.634;2023-04-06T11:49:21;2.67;;;1.17;;
60318;SDS011;46163;52.306;5.634;2023-04-06T11:51:47;2.15;;;1.40;;
60318;SDS011;46163;52.306;5.634;2023-04-06T11:54:12;1.63;;;1.20;;
60318;SDS011;46163;52.306;5.634;2023-04-06T11:56:38;1.98;;;1.45;;
60318;SDS011;46163;52.306;5.634;2023-04-06T11:59:03;1.10;;;1.10;;
60318;SDS011;46163;52.306;5.634;2023-04-06T12:01:29;2.88;;;1.58;;
60318;SDS011;46163;52.306;5.634;2023-04-06T12:03:55;1.35;;;1.25;;
60318;SDS011;46163;52.306;5.634;2023-04-06T12:06:21;1.33;;;1.23;;
60318;SDS011;46163;52.306;5.634;2023-04-06T12:08:46;1.73;;;1.20;;
60318;SDS011;46163;52.306;5.634;2023-04-06T12:11:12;1.73;;;1.40;;
60318;SDS011;46163;52.306;5.634;2023-04-06T12:13:38;1.30;;;1.20;;
60318;SDS011;46163;52.306;5.634;2023-04-06T12:16:04;1.45;;;1.20;;
60318;SDS011;46163;52.306;5.634;2023-04-06T12:18:31;1.20;;;1.10;;
60318;SDS011;46163;52.306;5.634;2023-04-06T12:20:57;2.08;;;1.42;;
60318;SDS011;46163;52.306;5.634;2023-04-06T12:23:22;1.17;;;0.98;;
60318;SDS011;46163;52.306;5.634;2023-04-06T12:25:48;1.13;;;1.13;;
60318;SDS011;46163;52.306;5.634;2023-04-06T12:28:13;1.27;;;1.17;;
60318;SDS011;46163;52.306;5.634;2023-04-06T12:30:39;1.17;;;1.08;;
60318;SDS011;46163;52.306;5.634;2023-04-06T12:33:06;1.20;;;1.10;;
60318;SDS011;46163;52.306;5.634;2023-04-06T12:35:35;1.10;;;0.98;;
60318;SDS011;46163;52.306;5.634;2023-04-06T12:38:01;2.03;;;1.08;;
60318;SDS011;46163;52.306;5.634;2023-04-06T12:40:27;1.10;;;1.10;;
60318;SDS011;46163;52.306;5.634;2023-04-06T12:42:52;1.20;;;1.10;;
60318;SDS011;46163;52.306;5.634;2023-04-06T12:45:19;0.98;;;0.90;;
60318;SDS011;46163;52.306;5.634;2023-04-06T12:47:45;1.02;;;0.93;;
60318;SDS011;46163;52.306;5.634;2023-04-06T12:50:10;0.90;;;0.90;;
60318;SDS011;46163;52.306;5.634;2023-04-06T12:52:36;1.38;;;1.10;;
60318;SDS011;46163;52.306;5.634;2023-04-06T12:55:02;1.10;;;1.00;;
60318;SDS011;46163;52.306;5.634;2023-04-06T12:57:29;1.65;;;1.08;;
60318;SDS011;46163;52.306;5.634;2023-04-06T12:59:56;1.35;;;1.30;;
60318;SDS011;46163;52.306;5.634;2023-04-06T13:02:25;1.40;;;1.10;;
60318;SDS011;46163;52.306;5.634;2023-04-06T13:04:51;0.88;;;0.88;;
60318;SDS011;46163;52.306;5.634;2023-04-06T13:07:16;1.00;;;1.00;;
60318;SDS011;46163;52.306;5.634;2023-04-06T13:09:41;1.30;;;1.10;;
60318;SDS011;46163;52.306;5.634;2023-04-06T13:12:07;1.20;;;1.20;;
60318;SDS011;46163;52.306;5.634;2023-04-06T13:14:32;1.08;;;1.08;;
60318;SDS011;46163;52.306;5.634;2023-04-06T13:16:58;0.70;;;0.70;;
60318;SDS011;46163;52.306;5.634;2023-04-06T13:19:25;2.80;;;1.58;;
60318;SDS011;46163;52.306;5.634;2023-04-06T13:21:51;1.15;;;1.00;;
60318;SDS011;46163;52.306;5.634;2023-04-06T13:24:17;1.27;;;1.05;;
60318;SDS011;46163;52.306;5.634;2023-04-06T13:26:46;0.82;;;0.82;;
60318;SDS011;46163;52.306;5.634;2023-04-06T13:29:12;0.70;;;0.70;;
60318;SDS011;46163;52.306;5.634;2023-04-06T13:31:37;1.23;;;1.10;;
60318;SDS011;46163;52.306;5.634;2023-04-06T13:34:04;2.65;;;0.93;;
60318;SDS011;46163;52.306;5.634;2023-04-06T13:38:57;0.77;;;0.77;;
60318;SDS011;46163;52.306;5.634;2023-04-06T13:41:24;1.23;;;0.90;;
60318;SDS011;46163;52.306;5.634;2023-04-06T13:43:54;0.80;;;0.80;;
60318;SDS011;46163;52.306;5.634;2023-04-06T13:46:19;0.90;;;0.90;;
60318;SDS011;46163;52.306;5.634;2023-04-06T13:48:45;0.80;;;0.80;;
60318;SDS011;46163;52.306;5.634;2023-04-06T13:51:12;1.25;;;1.08;;
60318;SDS011;46163;52.306;5.634;2023-04-06T13:53:39;0.75;;;0.75;;
60318;SDS011;46163;52.306;5.634;2023-04-06T13:56:05;1.33;;;0.80;;
60318;SDS011;46163;52.306;5.634;2023-04-06T13:58:31;1.42;;;1.20;;
60318;SDS011;46163;52.306;5.634;2023-04-06T14:01:03;0.80;;;0.80;;
60318;SDS011;46163;52.306;5.634;2023-04-06T14:03:29;1.55;;;1.00;;
60318;SDS011;46163;52.306;5.634;2023-04-06T14:05:55;0.63;;;0.63;;
60318;SDS011;46163;52.306;5.634;2023-04-06T14:08:21;0.50;;;0.50;;
60318;SDS011;46163;52.306;5.634;2023-04-06T14:10:46;0.90;;;0.90;;
60318;SDS011;46163;52.306;5.634;2023-04-06T14:13:11;0.65;;;0.65;;
60318;SDS011;46163;52.306;5.634;2023-04-06T14:15:37;0.82;;;0.82;;
60318;SDS011;46163;52.306;5.634;2023-04-06T14:18:03;0.73;;;0.70;;
60318;SDS011;46163;52.306;5.634;2023-04-06T14:20:30;1.23;;;1.00;;
60318;SDS011;46163;52.306;5.634;2023-04-06T14:22:56;0.60;;;0.60;;
60318;SDS011;46163;52.306;5.634;2023-04-06T14:25:25;0.77;;;0.77;;
60318;SDS011;46163;52.306;5.634;2023-04-06T14:27:51;0.55;;;0.55;;
60318;SDS011;46163;52.306;5.634;2023-04-06T14:30:16;0.90;;;0.90;;
60318;SDS011;46163;52.306;5.634;2023-04-06T14:32:42;0.60;;;0.60;;
60318;SDS011;46163;52.306;5.634;2023-04-06T14:35:07;0.57;;;0.57;;
60318;SDS011;46163;52.306;5.634;2023-04-06T14:37:33;0.68;;;0.68;;
60318;SDS011;46163;52.306;5.634;2023-04-06T14:39:59;0.80;;;0.80;;
60318;SDS011;46163;52.306;5.634;2023-04-06T14:42:25;1.75;;;0.80;;
60318;SDS011;46163;52.306;5.634;2023-04-06T14:44:51;0.80;;;0.80;;
60318;SDS011;46163;52.306;5.634;2023-04-06T14:47:33;0.98;;;0.98;;
60318;SDS011;46163;52.306;5.634;2023-04-06T14:49:59;1.02;;;1.02;;
60318;SDS011;46163;52.306;5.634;2023-04-06T14:52:24;1.10;;;1.10;;
60318;SDS011;46163;52.306;5.634;2023-04-06T14:54:50;1.10;;;1.10;;
60318;SDS011;46163;52.306;5.634;2023-04-06T14:57:15;1.50;;;1.35;;
60318;SDS011;46163;52.306;5.634;2023-04-06T14:59:41;1.30;;;1.20;;